Time;durP1;ratioP1;P1;durP2;ratioP2;P2;SDS_P1;SDS_P2;PMS_P1;PMS_P2;Temp;Humidity;BMP_temperature;BMP_pressure;BME280_temperature;BME280_humidity;BME280_pressure;Samples;Min_cycle;Max_cycle;Signal;HPM_P1;HPM_P2
2021/10/04 00:01:59;;;;;;;1.63;1.02;;;10.70;99.90;;;;;;5061109;28;20064;-83
2021/10/04 00:04:25;;;;;;;2.40;1.45;;;10.70;99.90;;;;;;5058203;28;20076;-82
2021/10/04 00:06:51;;;;;;;3.22;1.73;;;10.70;99.90;;;;;;5063154;28;20037;-83
2021/10/04 00:09:17;;;;;;;2.25;1.13;;;10.70;99.90;;;;;;5063138;28;20060;-85
2021/10/04 00:11:43;;;;;;;1.80;1.67;;;10.70;99.90;;;;;;5066588;28;20487;-82
2021/10/04 00:14:08;;;;;;;1.33;1.23;;;10.70;99.90;;;;;;5044092;28;20037;-83
2021/10/04 00:16:36;;;;;;;1.35;1.20;;;10.70;99.90;;;;;;5071667;28;20057;-82
2021/10/04 00:19:02;;;;;;;2.15;1.73;;;10.80;99.90;;;;;;5057667;28;20044;-83
2021/10/04 00:21:28;;;;;;;4.22;1.77;;;10.80;99.90;;;;;;5046865;28;20049;-83
2021/10/04 00:23:54;;;;;;;0.82;0.82;;;10.80;99.90;;;;;;5050443;28;20067;-83
2021/10/04 00:26:20;;;;;;;1.45;1.35;;;10.80;99.90;;;;;;5049991;28;20551;-84
2021/10/04 00:28:45;;;;;;;2.20;1.63;;;10.80;99.90;;;;;;5061201;28;20101;-84
2021/10/04 00:31:11;;;;;;;1.17;1.08;;;10.80;99.90;;;;;;5052165;28;20498;-82
2021/10/04 00:33:37;;;;;;;1.05;1.00;;;10.80;99.90;;;;;;5065751;28;20052;-81
2021/10/04 00:36:03;;;;;;;5.35;1.00;;;10.80;99.90;;;;;;5044767;28;20064;-83
2021/10/04 00:38:29;;;;;;;3.15;1.75;;;10.80;99.90;;;;;;5059201;28;20048;-84
2021/10/04 00:40:55;;;;;;;0.85;0.85;;;10.80;99.90;;;;;;5057629;28;20434;-85
2021/10/04 00:43:21;;;;;;;6.93;1.70;;;10.80;99.90;;;;;;5058157;28;20418;-82
2021/10/04 00:45:50;;;;;;;1.85;1.42;;;10.80;99.90;;;;;;5043089;28;20109;-84
2021/10/04 00:48:16;;;;;;;1.02;0.98;;;10.80;99.90;;;;;;5052708;28;20098;-83
2021/10/04 00:50:43;;;;;;;1.58;1.20;;;10.80;99.90;;;;;;5063580;28;20059;-83
2021/10/04 00:53:10;;;;;;;1.60;1.20;;;10.80;99.90;;;;;;5076895;28;20398;-83
2021/10/04 00:55:37;;;;;;;5.07;1.55;;;10.70;99.90;;;;;;5056601;28;20097;-83
2021/10/04 00:58:04;;;;;;;2.42;1.50;;;10.70;99.90;;;;;;5057927;28;20461;-84
2021/10/04 01:00:30;;;;;;;0.70;0.70;;;10.70;99.90;;;;;;5066780;28;20036;-82
2021/10/04 01:02:57;;;;;;;1.15;1.05;;;10.60;99.90;;;;;;5063230;28;20116;-83
2021/10/04 01:05:23;;;;;;;1.15;1.05;;;10.60;99.90;;;;;;5053684;28;20117;-83
2021/10/04 01:07:49;;;;;;;;;;;10.60;99.90;;;;;;5058515;28;20053;-83
2021/10/04 01:10:16;;;;;;;0.93;0.90;;;10.60;99.90;;;;;;5069569;28;19974;-83
2021/10/04 01:12:46;;;;;;;1.42;1.23;;;10.50;99.90;;;;;;5056785;28;20471;-82
2021/10/04 01:15:14;;;;;;;1.23;1.13;;;10.60;99.90;;;;;;5045000;28;20063;-83
2021/10/04 01:17:40;;;;;;;1.40;1.10;;;10.60;99.90;;;;;;5069615;28;20119;-83
2021/10/04 01:20:11;;;;;;;2.80;1.95;;;10.60;99.90;;;;;;5053838;28;20058;-83
2021/10/04 01:22:36;;;;;;;1.60;1.27;;;10.60;99.90;;;;;;5077713;28;20045;-83
2021/10/04 01:25:03;;;;;;;1.13;0.80;;;10.60;99.90;;;;;;5069719;28;20055;-83
2021/10/04 01:27:29;;;;;;;2.00;1.48;;;10.60;99.90;;;;;;5069630;28;20036;-83
2021/10/04 01:29:55;;;;;;;1.20;1.13;;;10.60;99.90;;;;;;5058295;28;20048;-83
2021/10/04 01:32:20;;;;;;;1.65;1.20;;;10.60;99.90;;;;;;5042307;28;20131;-83
2021/10/04 01:34:46;;;;;;;2.08;1.88;;;10.60;99.90;;;;;;5059484;28;20043;-84
2021/10/04 01:37:12;;;;;;;1.70;1.40;;;10.60;99.90;;;;;;5064881;28;20099;-81
2021/10/04 01:39:38;;;;;;;6.30;1.55;;;10.70;99.90;;;;;;5054243;28;20636;-82
2021/10/04 01:42:04;;;;;;;1.77;1.67;;;10.60;99.90;;;;;;5056721;28;20036;-82
2021/10/04 01:44:29;;;;;;;2.35;1.58;;;10.60;99.90;;;;;;5064444;28;20040;-81
2021/10/04 01:46:55;;;;;;;2.13;1.92;;;10.70;99.90;;;;;;5039901;28;20037;-80
2021/10/04 01:49:21;;;;;;;1.70;1.60;;;10.70;99.90;;;;;;5053125;28;20040;-81
2021/10/04 01:51:46;;;;;;;7.15;1.70;;;10.70;99.90;;;;;;5041112;28;20039;-83
2021/10/04 01:54:12;;;;;;;4.03;2.10;;;10.70;99.90;;;;;;5065477;28;20040;-80
2021/10/04 01:56:38;;;;;;;1.65;1.45;;;10.60;99.90;;;;;;5060943;28;20041;-80
2021/10/04 01:59:04;;;;;;;0.90;0.90;;;10.60;99.90;;;;;;5041817;28;20552;-82
2021/10/04 02:01:30;;;;;;;1.45;1.35;;;10.60;99.90;;;;;;5063946;28;20043;-82
2021/10/04 02:03:57;;;;;;;3.38;2.03;;;10.60;99.90;;;;;;5045467;28;20045;-83
2021/10/04 02:06:22;;;;;;;1.48;1.27;;;10.50;99.90;;;;;;5062382;28;20058;-84
2021/10/04 02:08:48;;;;;;;1.15;1.08;;;10.50;99.90;;;;;;5026837;28;20131;-85
2021/10/04 02:11:14;;;;;;;1.35;0.77;;;10.60;99.90;;;;;;5053470;28;20378;-83
2021/10/04 02:13:39;;;;;;;2.22;1.77;;;10.50;99.90;;;;;;5064063;28;20049;-82
2021/10/04 02:16:05;;;;;;;2.38;1.08;;;10.50;99.90;;;;;;5056597;28;20425;-82
2021/10/04 02:18:31;;;;;;;1.73;1.23;;;10.50;99.90;;;;;;5063361;28;21726;-82
2021/10/04 02:20:57;;;;;;;2.30;1.38;;;10.50;99.90;;;;;;5034024;28;20041;-83
2021/10/04 02:23:22;;;;;;;0.95;0.93;;;10.50;99.90;;;;;;5058577;28;20055;-80
2021/10/04 02:25:51;;;;;;;2.60;1.65;;;10.50;99.90;;;;;;5054893;28;20517;-84
2021/10/04 02:28:18;;;;;;;1.38;0.93;;;10.50;99.90;;;;;;5050892;28;20060;-81
2021/10/04 02:30:44;;;;;;;1.98;0.93;;;10.50;99.90;;;;;;5061768;28;20044;-81
2021/10/04 02:33:09;;;;;;;;;;;10.50;99.90;;;;;;5054186;28;20052;-82
2021/10/04 02:35:36;;;;;;;8.52;1.58;;;10.50;99.90;;;;;;5080388;28;19927;-81
2021/10/04 02:38:03;;;;;;;2.17;1.02;;;10.50;99.90;;;;;;5071140;28;20044;-82
2021/10/04 02:40:29;;;;;;;1.52;1.00;;;10.60;99.90;;;;;;5065655;28;20040;-80
2021/10/04 02:42:55;;;;;;;1.05;0.80;;;10.60;99.90;;;;;;5058237;28;20066;-84
2021/10/04 02:45:22;;;;;;;1.10;1.05;;;10.60;99.90;;;;;;5039584;28;20079;-84
2021/10/04 02:47:50;;;;;;;1.27;1.20;;;10.60;99.90;;;;;;5051902;28;20107;-84
2021/10/04 02:50:18;;;;;;;1.85;1.20;;;10.60;99.90;;;;;;5059546;28;20466;-83
2021/10/04 02:52:44;;;;;;;2.95;1.10;;;10.50;99.90;;;;;;5056607;28;20056;-84
2021/10/04 02:55:10;;;;;;;2.00;0.90;;;10.50;99.90;;;;;;5059723;28;20059;-82
2021/10/04 02:57:37;;;;;;;3.00;1.30;;;10.60;99.90;;;;;;5037005;28;20052;-86
2021/10/04 03:00:05;;;;;;;1.33;0.90;;;10.60;99.90;;;;;;5064810;28;20066;-83
2021/10/04 03:02:31;;;;;;;1.30;1.20;;;10.60;99.90;;;;;;5060597;28;20042;-83
2021/10/04 03:04:57;;;;;;;0.65;0.65;;;10.60;99.90;;;;;;5051581;28;20488;-84
2021/10/04 03:07:23;;;;;;;1.52;1.38;;;10.60;99.90;;;;;;5056539;28;20044;-85
2021/10/04 03:09:49;;;;;;;1.65;1.23;;;10.60;99.90;;;;;;5067898;28;20105;-82
2021/10/04 03:12:14;;;;;;;1.33;1.17;;;10.50;99.90;;;;;;5056445;28;20048;-82
2021/10/04 03:14:40;;;;;;;4.38;1.95;;;10.50;99.90;;;;;;5063513;28;20044;-83
2021/10/04 03:17:06;;;;;;;2.88;1.05;;;10.50;99.90;;;;;;5065885;28;20040;-82
2021/10/04 03:19:31;;;;;;;1.42;1.30;;;10.40;99.90;;;;;;5059486;28;20044;-82
2021/10/04 03:21:57;;;;;;;1.15;1.05;;;10.40;99.90;;;;;;5055279;28;20033;-83
2021/10/04 03:24:23;;;;;;;1.38;1.00;;;10.40;99.90;;;;;;5052883;28;20037;-82
2021/10/04 03:26:48;;;;;;;1.15;1.05;;;10.40;99.90;;;;;;5067502;28;20054;-83
2021/10/04 03:29:17;;;;;;;1.60;1.15;;;10.30;99.90;;;;;;5064545;28;20048;-82
2021/10/04 03:31:44;;;;;;;1.48;1.00;;;10.30;99.90;;;;;;5053089;28;20033;-84
2021/10/04 03:34:12;;;;;;;8.77;1.08;;;10.30;99.90;;;;;;5057479;28;20048;-84
2021/10/04 03:36:37;;;;;;;0.60;0.60;;;10.30;99.90;;;;;;5053420;28;20506;-83
2021/10/04 03:39:05;;;;;;;1.58;1.27;;;10.30;99.90;;;;;;5064311;28;20098;-85
2021/10/04 03:41:31;;;;;;;1.80;1.25;;;10.20;99.90;;;;;;5057570;28;20037;-82
2021/10/04 03:43:57;;;;;;;0.82;0.82;;;10.30;99.90;;;;;;5056280;28;20405;-82
2021/10/04 03:46:23;;;;;;;1.52;0.75;;;10.30;99.90;;;;;;5058887;28;20055;-82
2021/10/04 03:48:48;;;;;;;1.92;1.30;;;10.30;99.90;;;;;;5055611;28;20124;-84
2021/10/04 03:51:14;;;;;;;1.08;0.88;;;10.20;99.90;;;;;;5061805;28;20044;-85
2021/10/04 03:53:40;;;;;;;0.90;0.90;;;10.20;99.90;;;;;;5052887;28;20048;-82
2021/10/04 03:56:05;;;;;;;2.03;1.30;;;10.20;99.90;;;;;;5050268;28;20041;-83
2021/10/04 03:58:31;;;;;;;1.48;1.38;;;10.20;99.90;;;;;;5044401;28;20106;-83
2021/10/04 04:00:57;;;;;;;1.92;1.42;;;10.20;99.90;;;;;;5063629;28;20048;-82
2021/10/04 04:03:23;;;;;;;0.60;0.60;;;10.20;99.90;;;;;;5058336;28;20048;-83
2021/10/04 04:05:48;;;;;;;0.70;0.70;;;10.10;99.90;;;;;;5051668;28;20544;-82
2021/10/04 04:08:14;;;;;;;0.85;0.85;;;10.20;99.90;;;;;;5058291;28;20045;-82
2021/10/04 04:10:40;;;;;;;0.85;0.85;;;10.20;99.90;;;;;;5047265;28;20040;-82
2021/10/04 04:13:06;;;;;;;0.90;0.90;;;10.20;99.90;;;;;;5067909;28;20119;-85
2021/10/04 04:15:32;;;;;;;1.35;1.25;;;10.20;99.90;;;;;;5073208;28;20040;-82
2021/10/04 04:17:58;;;;;;;1.52;1.38;;;10.20;99.90;;;;;;5062803;28;20051;-83
2021/10/04 04:20:24;;;;;;;0.85;0.82;;;10.10;99.90;;;;;;5054140;28;20041;-82
2021/10/04 04:22:50;;;;;;;0.80;0.80;;;10.20;99.90;;;;;;5044998;28;20041;-84
2021/10/04 04:25:16;;;;;;;7.13;0.88;;;10.20;99.90;;;;;;5056517;28;20429;-83
2021/10/04 04:27:42;;;;;;;1.20;1.10;;;10.20;99.90;;;;;;5055108;28;20120;-83
2021/10/04 04:30:10;;;;;;;1.20;1.10;;;10.10;99.90;;;;;;5055715;28;20394;-84
2021/10/04 04:32:36;;;;;;;0.77;0.77;;;10.10;99.90;;;;;;5065121;28;20432;-81
2021/10/04 04:35:05;;;;;;;2.28;1.52;;;10.20;99.90;;;;;;5060360;28;20049;-86
2021/10/04 04:37:37;;;;;;;0.73;0.73;;;10.20;99.90;;;;;;5066658;28;20101;-84
2021/10/04 04:40:06;;;;;;;0.88;0.70;;;10.20;99.90;;;;;;5066670;28;20037;-82
2021/10/04 04:42:33;;;;;;;1.42;0.80;;;10.20;99.90;;;;;;5073280;28;20044;-85
2021/10/04 04:44:58;;;;;;;1.27;1.17;;;10.20;99.90;;;;;;5045203;28;20115;-84
2021/10/04 04:47:25;;;;;;;1.23;1.08;;;10.20;99.90;;;;;;5068030;28;20068;-86
2021/10/04 04:49:51;;;;;;;1.17;1.17;;;10.20;99.90;;;;;;5072239;28;20036;-82
2021/10/04 04:52:16;;;;;;;0.90;0.90;;;10.30;99.90;;;;;;5063548;28;20045;-85
2021/10/04 04:54:42;;;;;;;1.75;1.10;;;10.30;99.90;;;;;;5075395;28;20033;-83
2021/10/04 04:57:08;;;;;;;0.82;0.80;;;10.30;99.90;;;;;;5059379;28;20485;-84
2021/10/04 04:59:34;;;;;;;;;;;10.20;99.90;;;;;;5076152;28;20090;-83
2021/10/04 05:02:01;;;;;;;1.48;1.38;;;10.30;99.90;;;;;;5045175;28;20351;-82
2021/10/04 05:04:29;;;;;;;2.05;0.80;;;10.30;99.90;;;;;;5062880;28;20041;-81
2021/10/04 05:06:55;;;;;;;0.65;0.65;;;10.30;99.90;;;;;;5071291;28;20052;-83
2021/10/04 05:09:20;;;;;;;1.75;1.00;;;10.30;99.90;;;;;;5039408;28;20033;-83
2021/10/04 05:11:46;;;;;;;0.80;0.80;;;10.30;99.90;;;;;;5047726;28;20098;-82
2021/10/04 05:14:12;;;;;;;0.70;0.70;;;10.30;99.90;;;;;;5034552;28;20067;-84
2021/10/04 05:16:39;;;;;;;0.63;0.63;;;10.30;99.90;;;;;;5074506;28;20060;-85
2021/10/04 05:19:05;;;;;;;0.73;0.73;;;10.40;99.90;;;;;;5089414;28;20048;-84
2021/10/04 05:21:32;;;;;;;1.58;0.95;;;10.40;99.90;;;;;;5055086;28;20048;-83
2021/10/04 05:23:58;;;;;;;1.58;0.80;;;10.40;99.90;;;;;;5054765;28;20044;-82
2021/10/04 05:26:24;;;;;;;0.93;0.93;;;10.40;99.90;;;;;;5062172;28;20052;-83
2021/10/04 05:28:49;;;;;;;1.55;1.20;;;10.40;99.90;;;;;;5036654;28;20045;-85
2021/10/04 05:31:15;;;;;;;0.77;0.77;;;10.40;99.90;;;;;;5052830;28;20113;-82
2021/10/04 05:33:41;;;;;;;1.52;1.48;;;10.40;99.90;;;;;;5049769;28;20044;-83
2021/10/04 05:36:07;;;;;;;7.78;1.52;;;10.40;99.90;;;;;;5038062;28;20040;-81
2021/10/04 05:38:33;;;;;;;4.13;2.30;;;10.40;99.90;;;;;;5065107;28;20382;-81
2021/10/04 05:40:59;;;;;;;;;;;10.40;99.90;;;;;;5068246;28;20402;-80
2021/10/04 05:43:25;;;;;;;1.02;0.80;;;10.40;99.90;;;;;;5041821;28;19927;-83
2021/10/04 05:45:50;;;;;;;1.17;1.10;;;10.40;99.90;;;;;;5052313;28;20041;-83
2021/10/04 05:48:16;;;;;;;1.40;1.17;;;10.40;99.90;;;;;;5035757;28;20048;-82
2021/10/04 05:50:42;;;;;;;0.90;0.90;;;10.40;99.90;;;;;;5055634;28;20055;-82
2021/10/04 05:53:08;;;;;;;2.58;1.33;;;10.40;99.90;;;;;;5049730;28;20060;-84
2021/10/04 05:55:34;;;;;;;1.20;1.10;;;10.40;99.90;;;;;;5047554;28;20117;-83
2021/10/04 05:58:00;;;;;;;2.05;1.13;;;10.40;99.90;;;;;;5061790;28;20060;-82
2021/10/04 06:00:25;;;;;;;3.42;1.38;;;10.40;99.90;;;;;;5041249;28;20067;-81
2021/10/04 06:02:51;;;;;;;1.85;1.23;;;10.50;99.90;;;;;;5054399;28;20037;-84
2021/10/04 06:05:17;;;;;;;1.08;1.08;;;10.50;99.90;;;;;;5065673;28;20040;-80
2021/10/04 06:07:43;;;;;;;8.90;1.60;;;10.50;99.90;;;;;;5045453;28;20402;-82
2021/10/04 06:10:12;;;;;;;5.38;1.88;;;10.60;99.90;;;;;;5037390;28;20045;-83
2021/10/04 06:12:40;;;;;;;1.20;1.02;;;10.60;99.90;;;;;;5060436;28;20094;-83
2021/10/04 06:15:06;;;;;;;3.40;2.03;;;10.60;99.90;;;;;;5057811;28;20048;-81
2021/10/04 06:17:32;;;;;;;5.18;1.80;;;10.60;99.90;;;;;;5054659;28;20039;-83
2021/10/04 06:19:57;;;;;;;1.38;1.13;;;10.70;99.90;;;;;;5064312;28;20435;-82
2021/10/04 06:22:24;;;;;;;1.27;1.17;;;10.70;99.90;;;;;;5059966;28;20083;-80
2021/10/04 06:24:50;;;;;;;0.90;0.90;;;10.80;99.90;;;;;;5053017;28;20064;-82
2021/10/04 06:27:16;;;;;;;1.17;1.08;;;10.80;99.90;;;;;;5062570;28;20068;-81
2021/10/04 06:29:42;;;;;;;1.00;0.65;;;10.80;99.90;;;;;;5052187;28;20051;-81
2021/10/04 06:32:08;;;;;;;4.78;1.13;;;10.80;99.90;;;;;;5053395;28;20044;-81
2021/10/04 06:34:34;;;;;;;2.22;1.30;;;10.80;99.90;;;;;;5058128;28;20049;-81
2021/10/04 06:37:00;;;;;;;;;;;10.80;99.90;;;;;;5070894;28;20045;-83
2021/10/04 06:39:26;;;;;;;1.95;1.10;;;10.80;99.90;;;;;;5051467;28;19964;-82
2021/10/04 06:41:52;;;;;;;0.95;0.90;;;10.80;99.90;;;;;;5050615;28;20132;-82
2021/10/04 06:44:18;;;;;;;1.30;0.90;;;10.80;99.90;;;;;;5053097;28;20055;-82
2021/10/04 06:46:43;;;;;;;1.48;1.38;;;10.80;99.90;;;;;;5043903;28;20051;-77
2021/10/04 06:49:09;;;;;;;1.35;1.08;;;10.90;99.90;;;;;;5054458;28;20056;-81
2021/10/04 06:51:35;;;;;;;1.40;0.85;;;10.90;99.90;;;;;;5054201;28;20080;-81
2021/10/04 06:54:01;;;;;;;1.20;1.10;;;10.90;99.90;;;;;;5054194;28;20067;-82
2021/10/04 06:56:27;;;;;;;5.15;1.98;;;11.00;99.90;;;;;;5058908;28;20045;-81
2021/10/04 06:58:53;;;;;;;0.98;0.93;;;11.00;99.90;;;;;;5057830;28;20049;-82
2021/10/04 07:01:19;;;;;;;0.80;0.80;;;11.10;99.90;;;;;;5066638;28;20052;-80
2021/10/04 07:03:44;;;;;;;2.08;1.52;;;11.00;99.90;;;;;;5047655;28;20071;-82
2021/10/04 07:06:13;;;;;;;1.17;1.05;;;11.00;99.90;;;;;;5061338;28;20048;-82
2021/10/04 07:08:39;;;;;;;0.70;0.70;;;11.00;99.90;;;;;;5054283;28;20394;-80
2021/10/04 07:11:04;;;;;;;1.45;1.08;;;11.00;99.90;;;;;;5063612;28;20048;-78
2021/10/04 07:13:31;;;;;;;1.48;1.38;;;11.10;99.90;;;;;;5054444;28;20059;-81
2021/10/04 07:15:57;;;;;;;1.42;1.20;;;11.10;99.90;;;;;;5057537;28;20036;-81
2021/10/04 07:18:22;;;;;;;1.48;1.33;;;11.10;99.90;;;;;;5056104;28;20055;-82
2021/10/04 07:20:52;;;;;;;0.77;0.77;;;11.20;99.90;;;;;;5031119;28;20047;-80
2021/10/04 07:23:18;;;;;;;0.50;0.50;;;11.20;99.90;;;;;;5041088;28;20471;-82
2021/10/04 07:25:44;;;;;;;3.78;0.80;;;11.20;99.90;;;;;;5046930;28;20040;-84
2021/10/04 07:28:09;;;;;;;1.15;0.95;;;11.20;99.90;;;;;;5044177;28;20118;-81
2021/10/04 07:30:35;;;;;;;1.20;1.10;;;11.20;99.90;;;;;;5051708;28;20053;-81
2021/10/04 07:33:03;;;;;;;1.05;0.98;;;11.20;99.90;;;;;;5055217;28;20040;-81
2021/10/04 07:35:29;;;;;;;0.40;0.40;;;11.30;99.90;;;;;;5049156;28;20546;-81
2021/10/04 07:38:01;;;;;;;1.13;0.95;;;11.30;99.90;;;;;;5061706;28;20041;-80
2021/10/04 07:40:42;;;;;;;1.13;0.68;;;11.50;99.90;;;;;;5049366;28;20113;-79
2021/10/04 07:43:13;;;;;;;1.08;0.95;;;11.40;99.90;;;;;;5093663;28;20048;-81
2021/10/04 07:46:07;;;;;;;7.10;1.30;;;11.40;99.90;;;;;;5082384;28;20044;-78
2021/10/04 07:48:55;;;;;;;1.02;0.95;;;11.50;99.90;;;;;;5082177;28;20041;-81
2021/10/04 07:51:21;;;;;;;0.57;0.57;;;11.50;99.90;;;;;;5068718;28;20078;-80
2021/10/04 07:54:08;;;;;;;1.70;1.17;;;11.50;99.90;;;;;;5071592;28;20084;-79
2021/10/04 07:56:35;;;;;;;;;;;11.40;99.90;;;;;;5082699;28;20275;-81
2021/10/04 07:59:01;;;;;;;;;;;11.40;99.90;;;;;;5077123;28;19924;-79
2021/10/04 08:01:35;;;;;;;1.10;0.98;;;11.40;99.90;;;;;;5078016;28;19946;-80
2021/10/04 08:04:10;;;;;;;1.08;0.98;;;11.40;99.90;;;;;;5090786;28;20068;-82
2021/10/04 08:06:49;;;;;;;1.42;0.90;;;11.30;99.90;;;;;;5092790;28;20072;-77
2021/10/04 08:09:15;;;;;;;0.93;0.88;;;11.30;99.90;;;;;;5068579;28;20429;-82
2021/10/04 08:11:41;;;;;;;1.75;1.23;;;11.40;99.90;;;;;;5065214;28;20049;-77
2021/10/04 08:14:07;;;;;;;0.52;0.52;;;11.40;99.90;;;;;;5043369;28;20044;-79
2021/10/04 08:16:33;;;;;;;3.88;1.10;;;11.40;99.90;;;;;;5053284;28;20387;-79
2021/10/04 08:18:58;;;;;;;5.53;1.30;;;11.40;99.90;;;;;;5043524;28;20048;-81
2021/10/04 08:21:24;;;;;;;1.45;1.20;;;11.40;99.90;;;;;;5055842;28;20044;-82
2021/10/04 08:23:51;;;;;;;7.30;1.75;;;11.50;99.90;;;;;;5047206;28;20520;-84
2021/10/04 08:26:17;;;;;;;1.75;1.10;;;11.50;99.90;;;;;;5054569;28;20391;-83
2021/10/04 08:28:43;;;;;;;2.35;1.25;;;11.50;99.90;;;;;;5064050;28;20051;-83
2021/10/04 08:31:09;;;;;;;1.20;1.10;;;11.50;99.90;;;;;;5059611;28;20063;-83
2021/10/04 08:33:35;;;;;;;0.95;0.93;;;;;;;;;;5070481;28;20052;-84
2021/10/04 08:36:04;;;;;;;1.27;1.00;;;11.50;99.90;;;;;;5078689;28;20048;-82
2021/10/04 08:38:29;;;;;;;2.17;1.17;;;11.50;99.90;;;;;;5062086;28;20056;-83
2021/10/04 08:40:55;;;;;;;1.08;0.98;;;11.30;99.90;;;;;;5056197;28;20049;-83
2021/10/04 08:43:21;;;;;;;1.35;0.80;;;11.60;99.90;;;;;;5038233;28;20421;-81
2021/10/04 08:45:47;;;;;;;2.67;1.35;;;;;;;;;;5055609;28;20041;-79
2021/10/04 08:48:13;;;;;;;;;;;;;;;;;;5056789;28;20045;-75
2021/10/04 08:50:40;;;;;;;1.27;0.93;;;;;;;;;;5044620;28;19943;-76
2021/10/04 08:53:06;;;;;;;3.50;1.20;;;;;;;;;;5069541;28;20044;-83
2021/10/04 08:55:32;;;;;;;;;;;;;;;;;;5049957;28;20048;-82
2021/10/04 08:57:59;;;;;;;1.60;1.50;;;;;;;;;;5039772;28;20289;-82
2021/10/04 09:00:25;;;;;;;1.88;1.05;;;;;;;;;;5059886;28;20128;-83
2021/10/04 09:02:59;;;;;;;1.33;1.00;;;;;;;;;;5070913;28;20044;-82
2021/10/04 09:05:27;;;;;;;2.30;1.45;;;;;;;;;;5060651;28;20045;-80
2021/10/04 09:08:12;;;;;;;0.70;0.70;;;;;;;;;;5061472;28;20041;-83
2021/10/04 09:10:39;;;;;;;1.27;1.10;;;;;;;;;;5062167;28;20175;-79
2021/10/04 09:13:09;;;;;;;1.73;1.38;;;;;;;;;;5046154;28;20715;-80
2021/10/04 09:15:38;;;;;;;2.15;1.20;;;;;;;;;;5057735;28;20056;-82
2021/10/04 09:18:19;;;;;;;0.70;0.70;;;;;;;;;;5035152;28;20048;-80
2021/10/04 09:20:54;;;;;;;3.10;1.50;;;;;;;;;;5068321;28;20139;-79
2021/10/04 09:23:29;;;;;;;1.23;1.10;;;;;;;;;;5061340;28;20077;-84
2021/10/04 09:25:55;;;;;;;1.02;0.98;;;;;;;;;;5055343;28;20116;-80
2021/10/04 09:28:31;;;;;;;3.08;2.88;;;;;;;;;;5037973;28;20045;-78
2021/10/04 09:31:16;;;;;;;2.63;1.35;;;;;;;;;;5070659;28;20045;-79
2021/10/04 09:34:01;;;;;;;1.17;0.82;;;;;;;;;;5049427;28;20072;-79
2021/10/04 09:36:31;;;;;;;0.75;0.70;;;;;;;;;;5059447;28;20044;-78
2021/10/04 09:39:11;;;;;;;0.80;0.80;;;;;;;;;;5047950;28;20080;-79
2021/10/04 09:41:37;;;;;;;1.50;1.10;;;;;;;;;;5041042;28;20538;-81
2021/10/04 09:44:08;;;;;;;1.50;1.40;;;;;;;;;;5053114;28;20046;-77
2021/10/04 09:46:34;;;;;;;0.88;0.80;;;;;;;;;;5042869;28;20047;-80
2021/10/04 09:49:02;;;;;;;1.30;1.20;;;;;;;;;;5040093;28;20553;-76
2021/10/04 09:51:29;;;;;;;5.43;1.83;;;;;;;;;;5065030;28;20147;-76
2021/10/04 09:54:08;;;;;;;1.52;1.15;;;;;;;;;;5051444;28;20309;-76
2021/10/04 09:56:35;;;;;;;2.38;0.93;;;;;;;;;;5039913;28;20048;-76
2021/10/04 09:59:01;;;;;;;1.65;0.95;;;;;;;;;;5064900;28;20049;-76
2021/10/04 10:01:27;;;;;;;;;;;;;;;;;;5049680;28;20052;-76
2021/10/04 10:03:53;;;;;;;1.80;1.10;;;;;;;;;;5055928;28;19920;-81
2021/10/04 10:06:19;;;;;;;;;;;;;;;;;;5053059;28;20037;-81
2021/10/04 10:08:45;;;;;;;1.02;0.88;;;;;;;;;;5053823;28;19924;-82
2021/10/04 10:11:17;;;;;;;;;;;;;;;;;;5066517;28;21034;-81
2021/10/04 10:13:44;;;;;;;0.70;0.70;;;;;;;;;;5062144;28;20644;-80
2021/10/04 10:16:32;;;;;;;1.05;0.95;;;;;;;;;;5049068;28;20044;-80
2021/10/04 10:19:04;;;;;;;3.15;0.88;;;;;;;;;;5034789;28;20115;-83
2021/10/04 10:21:31;;;;;;;6.53;2.10;;;;;;;;;;5059504;28;20079;-80
2021/10/04 10:23:59;;;;;;;2.03;1.38;;;;;;;;;;5056562;28;20131;-79
2021/10/04 10:26:43;;;;;;;1.52;1.00;;;;;;;;;;5039341;28;20106;-82
2021/10/04 10:29:12;;;;;;;0.70;0.70;;;;;;;;;;5052713;28;20108;-80
2021/10/04 10:31:55;;;;;;;1.52;0.77;;;;;;;;;;5052267;28;20114;-82
2021/10/04 10:34:42;;;;;;;0.82;0.82;;;;;;;;;;5042866;28;20049;-78
2021/10/04 10:37:13;;;;;;;0.73;0.73;;;;;;;;;;5049688;28;20133;-78
2021/10/04 10:39:42;;;;;;;0.90;0.90;;;;;;;;;;5062245;28;20051;-79
2021/10/04 10:42:12;;;;;;;2.92;1.13;;;;;;;;;;5057011;28;20126;-83
2021/10/04 10:44:57;;;;;;;1.10;1.00;;;;;;;;;;5068637;28;20044;-79
2021/10/04 10:47:35;;;;;;;1.25;0.82;;;;;;;;;;5061891;28;20040;-80
2021/10/04 10:50:13;;;;;;;0.63;0.60;;;;;;;;;;5045381;28;20041;-79
2021/10/04 10:52:40;;;;;;;4.22;0.77;;;;;;;;;;5061408;28;20064;-79
2021/10/04 10:55:18;;;;;;;1.95;1.38;;;;;;;;;;5053770;28;20421;-83
2021/10/04 10:57:51;;;;;;;1.27;0.73;;;;;;;;;;5054687;28;20057;-82
2021/10/04 11:00:17;;;;;;;1.00;0.70;;;;;;;;;;5050404;28;20072;-82
2021/10/04 11:02:43;;;;;;;;;;;;;;;;;;5059389;28;20058;-80
2021/10/04 11:05:10;;;;;;;0.85;0.77;;;;;;;;;;5059658;28;19924;-82
2021/10/04 11:07:54;;;;;;;1.70;0.90;;;;;;;;;;5053457;28;20044;-80
2021/10/04 11:10:21;;;;;;;1.95;0.73;;;;;;;;;;5052666;28;20566;-81
2021/10/04 11:13:05;;;;;;;1.20;0.75;;;;;;;;;;5052665;28;20036;-81
2021/10/04 11:15:31;;;;;;;0.77;0.70;;;;;;;;;;5049984;28;20037;-81
2021/10/04 11:17:58;;;;;;;0.40;0.40;;;;;;;;;;5049481;28;20049;-81
2021/10/04 11:20:23;;;;;;;;;;;;;;;;;;5055449;28;20076;-80
2021/10/04 11:22:50;;;;;;;1.00;0.90;;;;;;;;;;5051569;28;19959;-82
2021/10/04 11:25:16;;;;;;;;;;;;;;;;;;5057046;28;20048;-81
2021/10/04 11:27:49;;;;;;;1.13;0.90;;;;;;;;;;5051467;28;19928;-79
2021/10/04 11:30:15;;;;;;;0.50;0.50;;;;;;;;;;5063789;28;20055;-81
2021/10/04 11:32:42;;;;;;;0.73;0.57;;;;;;;;;;5053420;28;20047;-81
2021/10/04 11:35:12;;;;;;;0.65;0.60;;;;;;;;;;5046793;28;20482;-81
2021/10/04 11:37:38;;;;;;;0.40;0.40;;;;;;;;;;5055576;28;20036;-77
2021/10/04 11:40:04;;;;;;;;;;;;;;;;;;5058610;28;20040;-80
2021/10/04 11:42:32;;;;;;;4.40;0.63;;;;;;;;;;5063542;28;20366;-80
2021/10/04 11:45:00;;;;;;;0.57;0.57;;;;;;;;;;5068024;28;20059;-77
2021/10/04 11:47:27;;;;;;;1.45;0.75;;;;;;;;;;5047226;28;20056;-79
2021/10/04 11:49:53;;;;;;;1.02;0.98;;;;;;;;;;5057286;28;20056;-79
2021/10/04 11:52:20;;;;;;;0.82;0.70;;;;;;;;;;5046799;28;20076;-81
2021/10/04 11:54:53;;;;;;;1.15;0.82;;;;;;;;;;5045519;28;20041;-80
2021/10/04 11:57:19;;;;;;;0.80;0.80;;;;;;;;;;5059891;28;20064;-81
2021/10/04 11:59:55;;;;;;;0.95;0.85;;;;;;;;;;5054854;28;20091;-78
2021/10/04 12:02:23;;;;;;;0.90;0.90;;;;;;;;;;5064905;28;20165;-77
2021/10/04 12:04:49;;;;;;;0.73;0.70;;;;;;;;;;5053241;28;20037;-77
2021/10/04 12:07:16;;;;;;;1.23;1.05;;;;;;;;;;5037673;28;20052;-79
2021/10/04 12:09:42;;;;;;;2.58;1.02;;;;;;;;;;5062761;28;20049;-80
2021/10/04 12:12:08;;;;;;;0.73;0.70;;;;;;;;;;5036005;28;20040;-81
2021/10/04 12:14:35;;;;;;;0.90;0.80;;;;;;;;;;5065077;28;20398;-80
2021/10/04 12:17:04;;;;;;;1.20;0.70;;;;;;;;;;5059094;28;20114;-78
2021/10/04 12:19:30;;;;;;;2.85;1.13;;;;;;;;;;5070688;28;20120;-81
2021/10/04 12:21:57;;;;;;;0.85;0.80;;;;;;;;;;5064577;28;20041;-82
2021/10/04 12:24:26;;;;;;;0.55;0.55;;;;;;;;;;5057530;28;20053;-79
2021/10/04 12:27:06;;;;;;;0.63;0.60;;;;;;;;;;5072191;28;20061;-79
2021/10/04 12:29:43;;;;;;;0.95;0.82;;;;;;;;;;5044312;28;20048;-78
2021/10/04 12:32:09;;;;;;;;;;;;;;;;;;5053561;28;20055;-77
2021/10/04 12:34:37;;;;;;;2.20;0.63;;;;;;;;;;5059528;28;19921;-80
2021/10/04 12:37:03;;;;;;;1.65;0.88;;;;;;;;;;5065196;28;20044;-77
2021/10/04 12:39:29;;;;;;;;;;;;;;;;;;5062088;28;20080;-78
2021/10/04 12:42:02;;;;;;;0.40;0.40;;;;;;;;;;5055558;28;19986;-76
2021/10/04 12:44:36;;;;;;;3.47;0.55;;;;;;;;;;5070797;28;20041;-77
2021/10/04 12:47:03;;;;;;;0.40;0.40;;;;;;;;;;5050522;28;20049;-76
2021/10/04 12:49:30;;;;;;;0.57;0.57;;;;;;;;;;5051050;28;20128;-77
2021/10/04 12:51:57;;;;;;;0.90;0.68;;;;;;;;;;5059338;28;20132;-77
2021/10/04 12:54:30;;;;;;;4.00;0.73;;;;;;;;;;5042751;28;20043;-78
2021/10/04 12:56:56;;;;;;;0.60;0.60;;;;;;;;;;5069390;28;20049;-76
2021/10/04 12:59:22;;;;;;;;;;;;;;;;;;5067765;28;20048;-79
2021/10/04 13:01:52;;;;;;;0.50;0.50;;;;;;;;;;5060114;28;19921;-79
2021/10/04 13:04:35;;;;;;;1.02;0.65;;;;;;;;;;5049910;28;20049;-76
2021/10/04 13:07:03;;;;;;;0.40;0.40;;;;;;;;;;5070960;28;20044;-80
2021/10/04 13:09:30;;;;;;;3.83;0.80;;;;;;;;;;5080762;28;20434;-78
2021/10/04 13:11:56;;;;;;;;;;;;;;;;;;5060471;28;20067;-80
2021/10/04 13:14:23;;;;;;;1.60;0.70;;;;;;;;;;5054146;28;20290;-79
2021/10/04 13:16:50;;;;;;;0.50;0.50;;;;;;;;;;5062072;28;20380;-79
2021/10/04 13:19:16;;;;;;;1.55;0.57;;;;;;;;;;5064454;28;20130;-79
2021/10/04 13:21:44;;;;;;;0.60;0.60;;;;;;;;;;5062069;28;20045;-79
2021/10/04 13:24:11;;;;;;;1.77;0.75;;;;;;;;;;5066632;28;20075;-80
2021/10/04 13:26:37;;;;;;;;;;;;;;;;;;5046849;28;20661;-79
2021/10/04 13:29:03;;;;;;;1.27;1.05;;;;;;;;;;5035822;28;19916;-79
2021/10/04 13:31:29;;;;;;;1.00;0.73;;;;;;;;;;5051718;28;20037;-77
2021/10/04 13:33:56;;;;;;;1.23;0.65;;;;;;;;;;5066468;28;20696;-79